createdAt,value
2023-02-27T00:01:06.740Z,4.93
2023-02-27T00:03:35.160Z,4.87
2023-02-27T00:06:03.593Z,4.53
2023-02-27T00:08:33.699Z,5.57
2023-02-27T00:11:02.006Z,5.17
2023-02-27T00:13:30.045Z,5.03
2023-02-27T00:15:58.301Z,4.07
2023-02-27T00:18:26.688Z,4.33
2023-02-27T00:20:55.968Z,5.20
2023-02-27T00:23:24.073Z,8.03
2023-02-27T00:25:54.786Z,6.57
2023-02-27T00:28:23.215Z,4.97
2023-02-27T00:30:51.358Z,3.87
2023-02-27T00:33:19.712Z,6.07
2023-02-27T00:35:56.364Z,4.57
2023-02-27T00:38:24.498Z,3.87
2023-02-27T00:40:54.475Z,6.03
2023-02-27T00:43:22.761Z,3.03
2023-02-27T00:45:51.429Z,3.57
2023-02-27T00:48:19.705Z,3.77
2023-02-27T00:50:48.051Z,3.37
2023-02-27T00:53:16.517Z,3.40
2023-02-27T00:55:44.755Z,3.83
2023-02-27T00:58:14.199Z,3.77
2023-02-27T01:00:42.507Z,2.53
2023-02-27T01:03:10.671Z,3.47
2023-02-27T01:05:38.823Z,4.40
2023-02-27T01:08:07.018Z,3.60
2023-02-27T01:10:35.789Z,3.63
2023-02-27T01:13:03.930Z,2.63
2023-02-27T01:15:33.756Z,2.83
2023-02-27T01:18:02.019Z,3.23
2023-02-27T01:20:30.270Z,3.43
2023-02-27T01:22:58.473Z,3.20
2023-02-27T01:25:26.970Z,3.23
2023-02-27T01:27:55.249Z,2.43
2023-02-27T01:30:23.454Z,3.30
2023-02-27T01:32:52.989Z,13.33
2023-02-27T01:35:21.141Z,5.70
2023-02-27T01:37:50.616Z,3.40
2023-02-27T01:40:19.404Z,2.47
2023-02-27T01:42:48.613Z,3.77
2023-02-27T01:45:30.330Z,4.90
2023-02-27T01:48:13.449Z,3.63
2023-02-27T01:50:47.635Z,3.97
2023-02-27T01:53:16.780Z,4.20
2023-02-27T01:55:48.599Z,4.80
2023-02-27T01:58:17.887Z,2.80
2023-02-27T02:00:46.953Z,3.23
2023-02-27T02:03:25.863Z,3.30
2023-02-27T02:05:57.265Z,4.17
2023-02-27T02:08:28.490Z,2.83
2023-02-27T02:10:58.937Z,3.27
2023-02-27T02:13:27.608Z,3.70
2023-02-27T02:16:11.605Z,2.93
2023-02-27T02:18:50.222Z,2.83
2023-02-27T02:21:51.439Z,2.80
2023-02-27T02:25:06.731Z,2.97
2023-02-27T02:27:48.236Z,3.27
2023-02-27T02:31:05.941Z,2.60
2023-02-27T02:34:08.149Z,2.63
2023-02-27T02:37:21.246Z,4.17
2023-02-27T02:40:11.812Z,4.97
2023-02-27T02:42:46.616Z,5.47
2023-02-27T02:45:24.365Z,3.57
2023-02-27T02:48:05.963Z,6.00
2023-02-27T02:50:40.173Z,3.37
2023-02-27T02:53:14.817Z,4.10
2023-02-27T02:55:54.857Z,4.03
2023-02-27T02:58:29.545Z,3.13
2023-02-27T03:01:04.958Z,3.07
2023-02-27T03:03:36.937Z,2.97
2023-02-27T03:06:09.675Z,4.67
2023-02-27T03:08:41.738Z,4.30
2023-02-27T03:11:11.483Z,3.87
2023-02-27T03:13:46.924Z,4.57
2023-02-27T03:16:21.076Z,3.57
2023-02-27T03:18:55.483Z,4.87
2023-02-27T03:21:31.138Z,4.73
2023-02-27T03:24:03.578Z,3.43
2023-02-27T03:26:38.618Z,3.40
2023-02-27T03:29:11.538Z,3.77
2023-02-27T03:31:45.394Z,3.13
2023-02-27T03:34:20.120Z,3.60
2023-02-27T03:36:56.008Z,4.90
2023-02-27T03:39:33.714Z,3.13
2023-02-27T03:42:12.690Z,2.80
2023-02-27T03:45:12.203Z,4.03
2023-02-27T03:47:40.783Z,3.47
2023-02-27T03:50:11.006Z,3.27
2023-02-27T03:52:39.833Z,2.77
2023-02-27T03:55:12.807Z,4.37
2023-02-27T03:57:44.318Z,4.17
2023-02-27T04:00:15.428Z,2.80
2023-02-27T04:02:47.434Z,3.10
2023-02-27T04:05:20.670Z,3.10
2023-02-27T04:08:18.008Z,5.13
2023-02-27T04:11:14.103Z,3.53
2023-02-27T04:13:56.032Z,5.30
2023-02-27T04:16:51.952Z,4.50
2023-02-27T04:19:36.910Z,4.10
2023-02-27T04:22:16.089Z,3.10
2023-02-27T04:24:54.179Z,3.13
2023-02-27T04:27:32.606Z,4.10
2023-02-27T04:30:14.366Z,6.30
2023-02-27T04:32:50.788Z,4.03
2023-02-27T04:35:24.966Z,4.73
2023-02-27T04:38:02.551Z,4.17
2023-02-27T04:40:35.536Z,6.03
2023-02-27T04:43:07.681Z,3.17
2023-02-27T04:45:41.333Z,3.80
2023-02-27T04:48:17.978Z,3.13
2023-02-27T04:50:51.320Z,3.50
2023-02-27T04:53:23.998Z,3.33
2023-02-27T04:55:55.746Z,3.53
2023-02-27T04:58:27.811Z,3.10
2023-02-27T05:01:02.692Z,5.60
2023-02-27T05:03:34.253Z,4.93
2023-02-27T05:06:03.449Z,4.67
2023-02-27T05:08:37.942Z,3.67
2023-02-27T05:11:12.234Z,4.87
2023-02-27T05:13:45.088Z,4.07
2023-02-27T05:16:21.059Z,4.27
2023-02-27T05:18:50.448Z,4.23
2023-02-27T05:21:27.657Z,3.47
2023-02-27T05:24:13.832Z,5.83
2023-02-27T05:27:04.107Z,3.13
2023-02-27T05:29:37.288Z,3.93
2023-02-27T05:32:18.579Z,2.97
2023-02-27T05:34:53.863Z,3.67
2023-02-27T05:37:26.620Z,2.90
2023-02-27T05:39:54.904Z,4.63
2023-02-27T05:42:28.674Z,3.97
2023-02-27T05:45:01.054Z,3.27
2023-02-27T05:47:36.012Z,4.83
2023-02-27T05:50:09.219Z,4.37
2023-02-27T05:52:39.470Z,4.83
2023-02-27T05:55:13.436Z,4.63
2023-02-27T05:57:46.474Z,5.67
2023-02-27T06:00:19.268Z,3.03
2023-02-27T06:02:49.039Z,4.27
2023-02-27T06:05:19.254Z,4.07
2023-02-27T06:07:47.739Z,3.93
2023-02-27T06:10:20.415Z,5.30
2023-02-27T06:12:48.918Z,2.57
2023-02-27T06:15:18.788Z,3.70
2023-02-27T06:17:48.723Z,4.83
2023-02-27T06:20:17.125Z,4.47
2023-02-27T06:22:45.370Z,4.00
2023-02-27T06:25:14.002Z,3.73
2023-02-27T06:27:42.196Z,4.43
2023-02-27T06:30:11.708Z,4.13
2023-02-27T06:32:39.900Z,4.47
2023-02-27T06:35:10.785Z,4.13
2023-02-27T06:37:39.364Z,4.67
2023-02-27T06:40:11.454Z,5.33
2023-02-27T06:42:39.776Z,3.77
2023-02-27T06:45:09.457Z,4.63
2023-02-27T06:47:39.358Z,3.93
2023-02-27T06:50:11.290Z,3.77
2023-02-27T06:52:40.078Z,5.13
2023-02-27T06:55:09.825Z,3.97
2023-02-27T06:57:38.094Z,6.07
2023-02-27T07:00:08.232Z,6.10
2023-02-27T07:02:36.373Z,6.00
2023-02-27T07:05:08.219Z,4.57
2023-02-27T07:07:38.977Z,4.73
2023-02-27T07:10:09.311Z,4.67
2023-02-27T07:12:37.567Z,3.60
2023-02-27T07:15:06.842Z,4.93
2023-02-27T07:17:34.955Z,4.40
2023-02-27T07:20:04.010Z,4.27
2023-02-27T07:22:32.213Z,6.90
2023-02-27T07:25:01.808Z,5.63
2023-02-27T07:27:30.073Z,7.67
2023-02-27T07:29:58.431Z,8.60
2023-02-27T07:32:26.667Z,7.87
2023-02-27T07:34:55.224Z,7.47
2023-02-27T07:37:23.466Z,7.87
2023-02-27T07:39:51.682Z,5.33
2023-02-27T07:42:21.210Z,8.53
2023-02-27T07:44:49.754Z,5.63
2023-02-27T07:47:18.682Z,5.23
2023-02-27T07:49:46.820Z,6.27
2023-02-27T07:52:15.075Z,6.57
2023-02-27T07:54:43.167Z,5.67
2023-02-27T07:57:11.425Z,4.43
2023-02-27T07:59:40.989Z,6.00
2023-02-27T08:02:10.539Z,6.90
2023-02-27T08:04:39.036Z,5.70
2023-02-27T08:07:08.186Z,5.47
2023-02-27T08:09:36.487Z,6.37
2023-02-27T08:12:04.677Z,7.37
2023-02-27T08:14:32.844Z,5.83
2023-02-27T08:17:02.747Z,6.77
2023-02-27T08:19:31.037Z,6.33
2023-02-27T08:21:59.185Z,6.67
2023-02-27T08:24:27.481Z,6.53
2023-02-27T08:26:55.830Z,7.13
2023-02-27T08:29:23.962Z,6.80
2023-02-27T08:31:52.368Z,7.70
2023-02-27T08:34:22.317Z,7.93
2023-02-27T08:36:50.439Z,9.07
2023-02-27T08:39:18.834Z,6.90
2023-02-27T08:41:46.984Z,7.50
2023-02-27T08:44:15.294Z,8.47
2023-02-27T08:46:43.548Z,8.00
2023-02-27T08:49:11.738Z,10.13
2023-02-27T08:51:41.292Z,6.77
2023-02-27T08:54:09.480Z,7.50
2023-02-27T08:56:37.851Z,5.83
2023-02-27T08:59:06.005Z,6.57
2023-02-27T09:01:34.707Z,6.93
2023-02-27T09:04:03.870Z,5.77
2023-02-27T09:06:33.082Z,7.83
2023-02-27T09:09:02.667Z,7.43
2023-02-27T09:11:31.443Z,7.37
2023-02-27T09:13:59.760Z,6.17
2023-02-27T09:16:28.733Z,6.60
2023-02-27T09:19:00.171Z,9.37
2023-02-27T09:21:29.737Z,7.87
2023-02-27T09:24:04.848Z,7.53
2023-02-27T09:26:46.341Z,6.67
2023-02-27T09:29:15.030Z,7.73
2023-02-27T09:31:43.307Z,6.70
2023-02-27T09:34:11.521Z,7.43
2023-02-27T09:36:39.797Z,5.37
2023-02-27T09:39:09.853Z,6.10
2023-02-27T09:41:57.696Z,6.07
2023-02-27T09:44:45.169Z,5.70
2023-02-27T09:47:19.324Z,6.00
2023-02-27T09:50:02.682Z,5.90
2023-02-27T09:52:33.983Z,6.72
2023-02-27T09:55:02.261Z,5.17
2023-02-27T09:57:42.205Z,5.63
2023-02-27T10:00:33.642Z,8.10
2023-02-27T10:03:12.742Z,5.13
2023-02-27T10:05:47.109Z,8.07
2023-02-27T10:08:23.018Z,6.63
2023-02-27T10:11:00.382Z,6.03
2023-02-27T10:13:43.964Z,4.60
2023-02-27T10:16:16.491Z,6.30
2023-02-27T10:18:53.570Z,4.80
2023-02-27T10:21:25.601Z,4.18
2023-02-27T10:24:01.162Z,6.20
2023-02-27T10:26:32.210Z,4.97
2023-02-27T10:29:04.311Z,6.43
2023-02-27T10:31:36.133Z,4.80
2023-02-27T10:34:05.212Z,7.13
2023-02-27T10:36:34.883Z,5.57
2023-02-27T10:39:07.961Z,5.88
2023-02-27T10:41:37.716Z,6.53
2023-02-27T10:44:07.582Z,6.10
2023-02-27T10:46:38.089Z,8.98
2023-02-27T10:49:16.940Z,9.73
2023-02-27T10:51:47.106Z,8.68
2023-02-27T10:54:20.930Z,6.60
2023-02-27T10:56:52.210Z,8.88
2023-02-27T10:59:25.080Z,6.80
2023-02-27T11:01:56.374Z,6.65
2023-02-27T11:04:34.814Z,6.20
2023-02-27T11:07:05.495Z,4.13
2023-02-27T11:09:35.628Z,6.22
2023-02-27T11:12:21.132Z,6.50
2023-02-27T11:14:53.509Z,8.45
2023-02-27T11:17:24.686Z,6.63
2023-02-27T11:19:52.888Z,7.97
2023-02-27T11:22:24.462Z,7.00
2023-02-27T11:24:53.132Z,6.70
2023-02-27T11:27:26.603Z,4.80
2023-02-27T11:30:02.332Z,4.97
2023-02-27T11:32:38.168Z,3.53
2023-02-27T11:35:23.974Z,2.63
2023-02-27T11:37:54.090Z,3.05
2023-02-27T11:40:24.840Z,3.60
2023-02-27T11:42:56.228Z,1.70
2023-02-27T11:46:19.033Z,2.80
2023-02-27T11:48:23.569Z,2.67
2023-02-27T11:51:20.025Z,2.30
2023-02-27T11:54:11.377Z,3.80
2023-02-27T11:56:44.272Z,1.70
2023-02-27T11:59:26.257Z,1.93
2023-02-27T12:02:01.010Z,3.30
2023-02-27T12:04:39.380Z,0.95
2023-02-27T12:07:16.732Z,1.63
2023-02-27T12:09:51.327Z,1.80
2023-02-27T12:12:24.682Z,1.58
2023-02-27T12:15:01.880Z,2.17
2023-02-27T12:17:38.123Z,2.78
2023-02-27T12:20:22.714Z,2.33
2023-02-27T12:22:53.648Z,3.80
2023-02-27T12:25:36.205Z,2.40
2023-02-27T12:28:14.003Z,3.28
2023-02-27T12:30:49.004Z,1.80
2023-02-27T12:33:37.178Z,1.70
2023-02-27T12:36:09.560Z,1.60
2023-02-27T12:38:38.661Z,2.90
2023-02-27T12:41:30.864Z,1.52
2023-02-27T12:44:16.184Z,2.25
2023-02-27T12:46:53.225Z,1.95
2023-02-27T12:49:34.898Z,0.90
2023-02-27T12:52:13.656Z,1.20
2023-02-27T12:54:54.607Z,1.25
2023-02-27T12:57:37.350Z,0.68
2023-02-27T13:00:17.398Z,2.72
2023-02-27T13:03:01.290Z,2.97
2023-02-27T13:05:49.620Z,2.05
2023-02-27T13:08:51.632Z,1.70
2023-02-27T13:11:32.854Z,1.73
2023-02-27T13:14:03.272Z,1.27
2023-02-27T13:16:37.697Z,1.25
2023-02-27T13:19:13.394Z,2.33
2023-02-27T13:21:51.684Z,1.63
2023-02-27T13:24:26.857Z,3.47
2023-02-27T13:27:00.502Z,1.08
2023-02-27T13:29:37.151Z,3.20
2023-02-27T13:32:41.248Z,1.55
2023-02-27T13:35:29.189Z,1.55
2023-02-27T13:38:01.622Z,0.70
2023-02-27T13:40:37.096Z,1.73
2023-02-27T13:43:25.362Z,2.00
2023-02-27T13:45:57.905Z,2.15
2023-02-27T13:48:51.956Z,1.65
2023-02-27T13:51:45.012Z,1.25
2023-02-27T13:54:34.400Z,1.20
2023-02-27T13:57:21.988Z,0.60
2023-02-27T13:59:56.535Z,1.65
2023-02-27T14:02:56.505Z,2.25
2023-02-27T14:05:33.045Z,1.33
2023-02-27T14:08:09.188Z,1.98
2023-02-27T14:10:40.238Z,2.35
2023-02-27T14:13:46.764Z,0.93
2023-02-27T14:16:49.778Z,1.13
2023-02-27T14:19:45.618Z,0.90
2023-02-27T14:22:37.406Z,0.90
2023-02-27T14:25:19.505Z,2.27
2023-02-27T14:27:51.939Z,3.92
2023-02-27T14:30:33.196Z,0.73
2023-02-27T14:33:08.112Z,1.38
2023-02-27T14:35:38.304Z,2.13
2023-02-27T14:38:11.839Z,1.17
2023-02-27T14:40:49.486Z,1.25
2023-02-27T14:43:29.225Z,1.40
2023-02-27T14:46:05.505Z,0.70
2023-02-27T14:48:34.256Z,1.75
2023-02-27T14:51:03.860Z,1.48
2023-02-27T14:53:32.897Z,1.42
2023-02-27T14:56:01.487Z,2.15
2023-02-27T14:58:29.827Z,1.13
2023-02-27T15:01:08.595Z,1.33
2023-02-27T15:03:41.884Z,1.13
2023-02-27T15:06:20.731Z,3.10
2023-02-27T15:08:51.934Z,1.33
2023-02-27T15:11:22.519Z,1.48
2023-02-27T15:13:57.745Z,2.70
2023-02-27T15:16:36.292Z,1.45
2023-02-27T15:19:16.097Z,1.07
2023-02-27T15:21:49.785Z,1.60
2023-02-27T15:24:25.171Z,1.10
2023-02-27T15:26:56.221Z,2.22
2023-02-27T15:29:26.876Z,1.60
2023-02-27T15:31:55.350Z,2.15
2023-02-27T15:34:23.618Z,1.77
2023-02-27T15:36:56.256Z,1.70
2023-02-27T15:39:25.852Z,1.77
2023-02-27T15:41:56.597Z,1.65
2023-02-27T15:44:28.268Z,2.97
2023-02-27T15:46:57.713Z,2.53
2023-02-27T15:49:26.618Z,1.73
2023-02-27T15:52:02.703Z,2.38
2023-02-27T15:54:35.971Z,2.67
2023-02-27T15:57:07.208Z,2.20
2023-02-27T15:59:41.058Z,2.15
2023-02-27T16:02:18.375Z,4.60
2023-02-27T16:04:47.675Z,1.33
2023-02-27T16:07:20.361Z,3.20
2023-02-27T16:09:52.574Z,2.83
2023-02-27T16:12:30.404Z,1.75
2023-02-27T16:15:34.661Z,2.87
2023-02-27T16:18:06.748Z,2.30
2023-02-27T16:20:43.550Z,1.47
2023-02-27T16:23:23.854Z,2.07
2023-02-27T16:26:08.037Z,3.58
2023-02-27T16:28:47.360Z,3.30
2023-02-27T16:31:25.380Z,1.43
2023-02-27T16:33:54.028Z,1.63
2023-02-27T16:36:24.184Z,2.17
2023-02-27T16:38:53.756Z,2.47
2023-02-27T16:41:24.187Z,1.87
2023-02-27T16:43:54.400Z,2.47
2023-02-27T16:46:23.659Z,2.97
2023-02-27T16:48:54.030Z,5.70
2023-02-27T16:51:24.653Z,6.30
2023-02-27T16:53:55.541Z,7.93
2023-02-27T16:56:37.268Z,3.33
2023-02-27T16:59:06.316Z,2.10
2023-02-27T17:01:34.749Z,3.33
2023-02-27T17:04:10.707Z,1.52
2023-02-27T17:06:44.831Z,1.57
2023-02-27T17:09:14.423Z,3.13
2023-02-27T17:11:42.575Z,1.47
2023-02-27T17:14:10.903Z,1.70
2023-02-27T17:16:39.237Z,2.27
2023-02-27T17:19:07.793Z,2.80
2023-02-27T17:21:36.013Z,7.20
2023-02-27T17:24:06.161Z,5.60
2023-02-27T17:26:36.288Z,3.57
2023-02-27T17:29:05.251Z,4.67
2023-02-27T17:31:33.755Z,3.53
2023-02-27T17:34:03.929Z,3.60
2023-02-27T17:36:32.110Z,4.00
2023-02-27T17:39:01.891Z,3.70
2023-02-27T17:41:30.967Z,4.23
2023-02-27T17:44:01.744Z,4.53
2023-02-27T17:46:32.359Z,4.17
2023-02-27T17:49:01.243Z,5.13
2023-02-27T17:51:30.907Z,8.63
2023-02-27T17:54:01.709Z,9.23
2023-02-27T17:56:30.306Z,16.07
2023-02-27T17:59:00.118Z,9.60
2023-02-27T18:01:29.032Z,30.97
2023-02-27T18:04:13.877Z,23.50
2023-02-27T18:06:42.138Z,11.90
2023-02-27T18:09:10.269Z,11.60
2023-02-27T18:11:38.967Z,25.17
2023-02-27T18:14:08.672Z,13.57
2023-02-27T18:16:39.176Z,30.50
2023-02-27T18:19:08.381Z,11.57
2023-02-27T18:21:37.248Z,12.93
2023-02-27T18:24:05.987Z,18.90
2023-02-27T18:26:35.416Z,15.53
2023-02-27T18:29:06.660Z,10.60
2023-02-27T18:31:39.778Z,8.83
2023-02-27T18:34:08.571Z,11.67
2023-02-27T18:36:37.894Z,9.80
2023-02-27T18:39:06.996Z,11.30
2023-02-27T18:41:35.758Z,9.20
2023-02-27T18:44:05.604Z,7.67
2023-02-27T18:46:34.864Z,10.37
2023-02-27T18:49:04.856Z,8.43
2023-02-27T18:51:33.561Z,8.33
2023-02-27T18:54:01.930Z,10.93
2023-02-27T18:56:32.988Z,11.90
2023-02-27T18:59:05.230Z,15.17
2023-02-27T19:01:35.412Z,19.00
2023-02-27T19:04:07.353Z,18.10
2023-02-27T19:06:38.870Z,20.03
2023-02-27T19:09:08.306Z,13.40
2023-02-27T19:11:36.968Z,12.67
2023-02-27T19:14:07.262Z,13.00
2023-02-27T19:16:36.330Z,15.37
2023-02-27T19:19:06.100Z,20.17
2023-02-27T19:21:35.178Z,16.43
2023-02-27T19:24:03.909Z,17.27
2023-02-27T19:26:34.102Z,18.33
2023-02-27T19:29:02.927Z,13.60
2023-02-27T19:31:31.820Z,17.70
2023-02-27T19:34:00.919Z,13.97
2023-02-27T19:36:31.464Z,17.43
2023-02-27T19:39:00.178Z,19.77
2023-02-27T19:41:28.985Z,14.60
2023-02-27T19:43:57.664Z,15.77
2023-02-27T19:46:29.140Z,16.40
2023-02-27T19:49:01.637Z,17.33
2023-02-27T19:51:31.579Z,19.10
2023-02-27T19:54:00.115Z,20.27
2023-02-27T19:56:30.310Z,22.53
2023-02-27T19:59:01.409Z,18.97
2023-02-27T20:01:31.465Z,19.13
2023-02-27T20:04:00.455Z,20.07
2023-02-27T20:06:32.102Z,24.20
2023-02-27T20:09:01.361Z,22.13
2023-02-27T20:11:31.181Z,27.67
2023-02-27T20:13:59.811Z,27.43
2023-02-27T20:16:30.614Z,27.23
2023-02-27T20:18:59.215Z,17.13
2023-02-27T20:21:28.767Z,17.33
2023-02-27T20:23:59.362Z,17.03
2023-02-27T20:26:30.727Z,13.33
2023-02-27T20:29:04.098Z,16.23
2023-02-27T20:31:35.005Z,17.33
2023-02-27T20:34:05.882Z,16.20
2023-02-27T20:36:34.883Z,15.40
2023-02-27T20:39:05.840Z,17.53
2023-02-27T20:41:36.756Z,17.67
2023-02-27T20:44:05.599Z,18.13
2023-02-27T20:46:33.730Z,17.40
2023-02-27T20:49:03.670Z,15.03
2023-02-27T20:51:35.854Z,15.47
2023-02-27T20:54:07.613Z,15.30
2023-02-27T20:56:41.057Z,14.00
2023-02-27T20:59:11.553Z,15.37
2023-02-27T21:01:40.204Z,13.73
2023-02-27T21:04:08.491Z,13.40
2023-02-27T21:06:36.734Z,13.63
2023-02-27T21:09:07.921Z,14.10
2023-02-27T21:11:36.105Z,16.63
2023-02-27T21:14:09.130Z,13.83
2023-02-27T21:16:37.786Z,13.90
2023-02-27T21:19:07.274Z,14.07
2023-02-27T21:21:36.598Z,16.13
2023-02-27T21:24:07.170Z,13.67
2023-02-27T21:26:37.895Z,12.00
2023-02-27T21:29:08.292Z,13.97
2023-02-27T21:31:38.218Z,18.47
2023-02-27T21:34:08.772Z,19.07
2023-02-27T21:36:42.076Z,20.00
2023-02-27T21:39:14.793Z,24.10
2023-02-27T21:41:43.381Z,18.27
2023-02-27T21:44:14.578Z,18.43
2023-02-27T21:46:42.756Z,18.00
2023-02-27T21:49:16.350Z,23.23
2023-02-27T21:51:45.069Z,28.37
2023-02-27T21:54:16.587Z,19.97
2023-02-27T21:56:46.041Z,21.10
2023-02-27T21:59:15.096Z,18.87
2023-02-27T22:01:47.126Z,17.70
2023-02-27T22:04:16.588Z,15.13
2023-02-27T22:06:46.113Z,15.67
2023-02-27T22:09:16.034Z,14.90
2023-02-27T22:11:44.917Z,14.37
2023-02-27T22:14:14.059Z,17.17
2023-02-27T22:16:43.145Z,17.27
2023-02-27T22:19:13.685Z,17.13
2023-02-27T22:21:42.227Z,16.93
2023-02-27T22:24:11.426Z,16.83
2023-02-27T22:26:41.642Z,13.17
2023-02-27T22:29:10.128Z,16.23
2023-02-27T22:31:39.597Z,15.30
2023-02-27T22:34:09.432Z,16.27
2023-02-27T22:36:37.949Z,10.80
2023-02-27T22:39:07.304Z,15.77
2023-02-27T22:41:37.354Z,11.87
2023-02-27T22:44:07.911Z,15.60
2023-02-27T22:46:37.868Z,13.27
2023-02-27T22:49:08.107Z,13.63
2023-02-27T22:51:37.052Z,12.17
2023-02-27T22:54:07.118Z,17.47
2023-02-27T22:56:37.830Z,15.03
2023-02-27T22:59:07.787Z,14.47
2023-02-27T23:01:37.804Z,43.73
2023-02-27T23:04:07.704Z,19.93
2023-02-27T23:06:38.807Z,20.77
2023-02-27T23:09:09.533Z,9.97
2023-02-27T23:11:37.714Z,10.50
2023-02-27T23:14:07.351Z,13.33
2023-02-27T23:16:35.661Z,9.73
2023-02-27T23:19:05.012Z,7.60
2023-02-27T23:21:35.554Z,9.50
2023-02-27T23:24:08.867Z,16.77
2023-02-27T23:26:37.490Z,9.83
2023-02-27T23:29:07.871Z,10.63
2023-02-27T23:31:37.260Z,9.10
2023-02-27T23:34:06.741Z,7.70
2023-02-27T23:36:35.392Z,8.27
2023-02-27T23:39:03.782Z,7.20
2023-02-27T23:41:32.638Z,101.77
2023-02-27T23:44:01.454Z,11.10
2023-02-27T23:46:31.261Z,13.00
2023-02-27T23:48:59.407Z,6.97
2023-02-27T23:51:30.253Z,7.00
2023-02-27T23:53:59.432Z,40.50
2023-02-27T23:56:28.958Z,15.87
2023-02-27T23:58:59.189Z,10.30
